Hozan Maru — JJ4010 — position and weather

sailwx.info

Track history (hours):
 
Tides and Currents Weather Stations Pressure Air Temp Water Temp Dewpoint Dewpoint Depression Visibility Wind Speed Wind Dir Waves Ship Positions

Hozan Maru

Last reported at 2014-Oct-30 05:23 UTC. Time now 2014-Oct-30 16:05 UTC.
Position N 34°40' E 135°27'.

Length 38 m; draft 3.6 m.

Type: Tug. MMSI: 431401501.

Date/timePositionNaut miles runAvg speedWind from/ knotsBaromVisibWave heightAir tempDewpointWater temp
2014-Oct-30 05:23N 34°40' E 135°27'7 8.1
2014-Oct-30 04:31N 34°33' E 135°26'0 0.1
2014-Oct-30 03:33N 34°33' E 135°26'3 3.4
2014-Oct-30 02:33N 34°33' E 135°22'3 2.5
2014-Oct-30 01:33N 34°32' E 135°20'4 4.3
2014-Oct-30 00:33N 34°28' E 135°21'0 0.0
2014-Oct-29 23:33N 34°28' E 135°21'0 0.0
2014-Oct-29 22:33N 34°28' E 135°21'1 1.1
2014-Oct-29 21:31N 34°29' E 135°20'7 6.6
2014-Oct-29 20:32N 34°35' E 135°22'7 0.6
2014-Oct-29 09:14N 34°40' E 135°27'3 4.0
2014-Oct-29 08:33N 34°39' E 135°24'3 2.7
2014-Oct-29 07:32N 34°40' E 135°27'0 0.0
2014-Oct-29 06:33N 34°40' E 135°27'0 0.0
2014-Oct-29 05:33N 34°40' E 135°27'0 0.0
2014-Oct-29 04:33N 34°40' E 135°27'0 0.0
2014-Oct-29 03:33N 34°40' E 135°27'2 1.5
2014-Oct-29 02:33N 34°39' E 135°26'4 4.0
2014-Oct-29 01:33N 34°39' E 135°21'4 3.9
2014-Oct-29 00:33N 34°41' E 135°16'1 0.9
2014-Oct-28 23:33N 34°41' E 135°17'7 0.5
2014-Oct-28 07:33N 34°40' E 135°26'3 2.7
2014-Oct-28 06:33N 34°38' E 135°23'1 1.4
2014-Oct-28 05:33N 34°38' E 135°25'0 0.0
2014-Oct-28 04:33N 34°38' E 135°25'1 0.6
2014-Oct-28 03:33N 34°38' E 135°24'5 4.9
2014-Oct-28 02:30N 34°33' E 135°25'3 2.7
2014-Oct-28 01:33N 34°35' E 135°24'4 0.2
2014-Oct-27 03:34N 34°38' E 135°22'1212.1
2014-Oct-27 02:34N 34°37' E 135°07'9 9.5
2014-Oct-27 01:34N 34°38' E 134°56'7 1.6
2014-Oct-26 21:12N 34°41' E 134°49'0 0.0
2014-Oct-25 23:29N 34°41' E 134°49'5 5.5
2014-Oct-25 22:30N 34°37' E 134°54'1414.7
2014-Oct-25 21:33N 34°38' E 135°11'1312.8
2014-Oct-25 20:33N 34°40' E 135°26'2 0.1
2014-Oct-25 06:33N 34°39' E 135°25'6 6.1
2014-Oct-25 05:33N 34°33' E 135°25'1 0.5
2014-Oct-25 04:33N 34°33' E 135°26'1 0.8
2014-Oct-25 03:33N 34°33' E 135°27'0 0.0
2014-Oct-25 02:33N 34°33' E 135°27'0 0.0
2014-Oct-25 01:33N 34°33' E 135°27'0 0.0
2014-Oct-25 00:33N 34°33' E 135°27'0 0.0
2014-Oct-24 23:33N 34°33' E 135°27'2 1.8
2014-Oct-24 22:33N 34°33' E 135°24'2 1.7
2014-Oct-24 21:33N 34°35' E 135°24'6 0.4
2014-Oct-24 07:23N 34°40' E 135°27'2 2.3
2014-Oct-24 06:33N 34°39' E 135°26'1 0.0
2014-Oct-23 06:33N 34°39' E 135°26'1212.2
2014-Oct-23 05:33N 34°37' E 135°11'1414.0
2014-Oct-23 04:32N 34°38' E 134°54'6 0.8
2014-Oct-22 21:28N 34°40' E 134°48'9 0.6
2014-Oct-22 05:33N 34°38' E 134°58'1111.3
2014-Oct-22 04:33N 34°38' E 135°12'4 3.7
2014-Oct-22 03:33N 34°41' E 135°15'4 3.7
2014-Oct-22 02:33N 34°39' E 135°19'3 3.0
2014-Oct-22 01:33N 34°38' E 135°23'2 1.7
2014-Oct-22 00:33N 34°39' E 135°25'1 0.6
2014-Oct-21 23:33N 34°39' E 135°24'0 0.1
2014-Oct-21 22:33N 34°39' E 135°24'3 0.1
2014-Oct-20 09:05N 34°40' E 135°27'510.4
2014-Oct-20 08:33N 34°36' E 135°23'6 6.0
2014-Oct-20 07:33N 34°32' E 135°17'6 5.7
2014-Oct-20 06:33N 34°34' E 135°11'6 6.0
2014-Oct-20 05:33N 34°35' E 135°04'  
Track history (hours):
 
Tides and Currents Weather Stations Pressure Air Temp Water Temp Dewpoint Dewpoint Depression Visibility Wind Speed Wind Dir Waves Ship Positions

Hozan Maru

Last reported at 2014-Oct-30 05:23 UTC. Time now 2014-Oct-30 16:05 UTC.
Position N 34°40' E 135°27'.

Length 38 m; draft 3.6 m.

Type: Tug. MMSI: 431401501.

Date/timePositionNaut miles runAvg speedWind from/ knotsBaromVisibWave heightAir tempDewpointWater temp
2014-Oct-30 05:23N 34°40' E 135°27'7 8.1
2014-Oct-30 04:31N 34°33' E 135°26'0 0.1
2014-Oct-30 03:33N 34°33' E 135°26'3 3.4
2014-Oct-30 02:33N 34°33' E 135°22'3 2.5
2014-Oct-30 01:33N 34°32' E 135°20'4 4.3
2014-Oct-30 00:33N 34°28' E 135°21'0 0.0
2014-Oct-29 23:33N 34°28' E 135°21'0 0.0
2014-Oct-29 22:33N 34°28' E 135°21'1 1.1
2014-Oct-29 21:31N 34°29' E 135°20'7 6.6
2014-Oct-29 20:32N 34°35' E 135°22'7 0.6
2014-Oct-29 09:14N 34°40' E 135°27'3 4.0
2014-Oct-29 08:33N 34°39' E 135°24'3 2.7
2014-Oct-29 07:32N 34°40' E 135°27'0 0.0
2014-Oct-29 06:33N 34°40' E 135°27'0 0.0
2014-Oct-29 05:33N 34°40' E 135°27'0 0.0
2014-Oct-29 04:33N 34°40' E 135°27'0 0.0
2014-Oct-29 03:33N 34°40' E 135°27'2 1.5
2014-Oct-29 02:33N 34°39' E 135°26'4 4.0
2014-Oct-29 01:33N 34°39' E 135°21'4 3.9
2014-Oct-29 00:33N 34°41' E 135°16'1 0.9
2014-Oct-28 23:33N 34°41' E 135°17'7 0.5
2014-Oct-28 07:33N 34°40' E 135°26'3 2.7
2014-Oct-28 06:33N 34°38' E 135°23'1 1.4
2014-Oct-28 05:33N 34°38' E 135°25'0 0.0
2014-Oct-28 04:33N 34°38' E 135°25'1 0.6
2014-Oct-28 03:33N 34°38' E 135°24'5 4.9
2014-Oct-28 02:30N 34°33' E 135°25'3 2.7
2014-Oct-28 01:33N 34°35' E 135°24'4 0.2
2014-Oct-27 03:34N 34°38' E 135°22'1212.1
2014-Oct-27 02:34N 34°37' E 135°07'9 9.5
2014-Oct-27 01:34N 34°38' E 134°56'7 1.6
2014-Oct-26 21:12N 34°41' E 134°49'0 0.0
2014-Oct-25 23:29N 34°41' E 134°49'5 5.5
2014-Oct-25 22:30N 34°37' E 134°54'1414.7
2014-Oct-25 21:33N 34°38' E 135°11'1312.8
2014-Oct-25 20:33N 34°40' E 135°26'2 0.1
2014-Oct-25 06:33N 34°39' E 135°25'6 6.1
2014-Oct-25 05:33N 34°33' E 135°25'1 0.5
2014-Oct-25 04:33N 34°33' E 135°26'1 0.8
2014-Oct-25 03:33N 34°33' E 135°27'0 0.0
2014-Oct-25 02:33N 34°33' E 135°27'0 0.0
2014-Oct-25 01:33N 34°33' E 135°27'0 0.0
2014-Oct-25 00:33N 34°33' E 135°27'0 0.0
2014-Oct-24 23:33N 34°33' E 135°27'2 1.8
2014-Oct-24 22:33N 34°33' E 135°24'2 1.7
2014-Oct-24 21:33N 34°35' E 135°24'6 0.4
2014-Oct-24 07:23N 34°40' E 135°27'2 2.3
2014-Oct-24 06:33N 34°39' E 135°26'1 0.0
2014-Oct-23 06:33N 34°39' E 135°26'1212.2
2014-Oct-23 05:33N 34°37' E 135°11'1414.0
2014-Oct-23 04:32N 34°38' E 134°54'6 0.8
2014-Oct-22 21:28N 34°40' E 134°48'9 0.6
2014-Oct-22 05:33N 34°38' E 134°58'1111.3
2014-Oct-22 04:33N 34°38' E 135°12'4 3.7
2014-Oct-22 03:33N 34°41' E 135°15'4 3.7
2014-Oct-22 02:33N 34°39' E 135°19'3 3.0
2014-Oct-22 01:33N 34°38' E 135°23'2 1.7
2014-Oct-22 00:33N 34°39' E 135°25'1 0.6
2014-Oct-21 23:33N 34°39' E 135°24'0 0.1
2014-Oct-21 22:33N 34°39' E 135°24'3 0.1
2014-Oct-20 09:05N 34°40' E 135°27'510.4
2014-Oct-20 08:33N 34°36' E 135°23'6 6.0
2014-Oct-20 07:33N 34°32' E 135°17'6 5.7
2014-Oct-20 06:33N 34°34' E 135°11'6 6.0
2014-Oct-20 05:33N 34°35' E 135°04'  

Dump ship's entire track history